KAVK

Alva Regional Airport

Alva, Oklahoma, USA
METAR KAVK 231435Z AUTO 22012G18KT 10SM CLR 27/19 A3007 RMK AO2
Observed Flight Rules
May-23 @ 14:35 UTC (28 minutes ago) Visual Flight Rules
Wind Visibility Clouds
220° at 12 knots
 Gusting to 18 knots
10 miles
  • Clear skies
Temperatures Readings
Current 27°C / 81°F
Dewpoint 19°C / 66°F
Humidity 62%
Altimeter 30.07" Hg
Pressure 1018 hPa
Elevation 449
METAR KAVK 231435Z AUTO 22012G18KT 10SM CLR 27/19 A3007 RMK AO2
Observed Flight Rules
May-23 @ 14:35 UTC
(28 minutes ago)
VFR
Wind Visibility
220° at 12 knots
 Gusting to 18 knots
10 miles
Clouds
  • Clear skies
Temperature Dewpoint
27°C / 81°F 19°C / 66°F
Humidity Altimeter Pressure
62% 30.07" Hg 1018 hPa